Airfield :







YOU CAN JOIN US ON...

 
LOGIN :

Register | Disclaimer

   EN    FR    IT 

 









Legend :    VFR   Marginal VFR   IFR   Intensive IFR   Very Intensive IFR
Visi :
Ceiling :
>= 8 km
>= 3000ft
5 to 8 km
1000 to 3000 ft
1500m to 5 km
500 to 1000 ft
800 to 1500m
200 to 500 ft
< 800m
< 200 ft
Symbols :   Thunderstorms  Fog  Heavy snow  Heavy precipitations  Wind > 20 kt







- Airport Elevation : 121 ft
- IATA code : YBX


CYBX - Lourdes De Blanc Sablon

CURRENT METAR :
  • 222000Z 22022G31KT 15SM FEW250 10/07 A2955 RMK CI2 SLP009

EXPIRED METARs :
  • 221900Z 23022G34KT 15SM FEW180 11/07 A2958 RMK AC1 SLP018
  • 221800Z 23021G27KT 15SM FEW006 11/08 A2961 RMK SC1 SC TR SLP032
  • 221700Z 22020G27KT 15SM FEW006 SCT250 11/08 A2966 RMK SC1CI2 SLP047

TAF TAF CYBX
Valid from the 22 at 20:00 until the 23 at 08:00 UTC


221938Z 2220/2308 23020G30KT P6SM SCT250
FM222300 23020G30KT P6SM SCT015 BKN050 OVC120
TEMPO 2223/2308 5SM -RA BR BKN015 OVC050
BECMG 2301/2303 23015G25KT WS005/23035KT RMK NXT FCST BY 230200Z
No reported NOTAMs for that airfield.



MET'MAP, your aeronautical weather chart ! - Copyright ORBIFLY December 2007 - Disclaimer

ORBIFLY MET'MAP TEAM :

Programming & Development : Alexandra Zaïnal
Concept & Development : Baudouin d'Aumeries
Co-Development & Prog : Marc-Olivier Méhu
Technical & hardware support : Manuel Goepfert

Contact : metmap@orbifly.com




SOURCES & CREDITS :

   NOAA